createdAt,value
2018-12-24T00:00:59.727Z,33.27
2018-12-24T00:03:30.770Z,50.60
2018-12-24T00:06:01.581Z,39.47
2018-12-24T00:08:32.589Z,49.67
2018-12-24T00:11:03.562Z,47.43
2018-12-24T00:13:34.462Z,57.20
2018-12-24T00:16:05.523Z,36.17
2018-12-24T00:18:36.757Z,36.03
2018-12-24T00:21:07.845Z,47.47
2018-12-24T00:23:38.568Z,59.47
2018-12-24T00:26:09.367Z,49.57
2018-12-24T00:28:40.714Z,47.27
2018-12-24T00:31:11.510Z,36.67
2018-12-24T00:33:42.383Z,40.80
2018-12-24T00:36:13.491Z,29.00
2018-12-24T00:38:44.388Z,30.70
2018-12-24T00:41:15.236Z,29.40
2018-12-24T00:43:46.566Z,32.97
2018-12-24T00:46:17.262Z,27.87
2018-12-24T00:48:47.994Z,31.70
2018-12-24T00:51:19.024Z,32.43
2018-12-24T00:53:50.030Z,29.27
2018-12-24T00:56:20.860Z,28.83
2018-12-24T00:58:51.579Z,29.10
2018-12-24T01:01:22.732Z,49.40
2018-12-24T01:03:53.812Z,105.83
2018-12-24T01:06:24.830Z,34.23
2018-12-24T01:08:55.536Z,29.90
2018-12-24T01:11:26.892Z,24.47
2018-12-24T01:13:57.834Z,22.70
2018-12-24T01:16:28.894Z,24.37
2018-12-24T01:18:59.985Z,27.97
2018-12-24T01:21:31.047Z,25.47
2018-12-24T01:24:01.773Z,23.20
2018-12-24T01:26:32.631Z,28.23
2018-12-24T01:29:03.353Z,21.43
2018-12-24T01:31:34.927Z,21.33
2018-12-24T01:34:05.776Z,23.90
2018-12-24T01:36:36.763Z,26.50
2018-12-24T01:39:08.623Z,22.47
2018-12-24T01:41:39.692Z,21.07
2018-12-24T01:44:10.422Z,22.03
2018-12-24T01:46:41.706Z,23.63
2018-12-24T01:49:12.687Z,22.33
2018-12-24T01:51:43.687Z,21.07
2018-12-24T01:54:14.509Z,22.97
2018-12-24T01:56:45.882Z,22.40
2018-12-24T01:59:16.906Z,22.93
2018-12-24T02:01:48.656Z,19.23
2018-12-24T02:04:20.338Z,21.13
2018-12-24T02:06:51.500Z,24.43
2018-12-24T02:09:22.544Z,15.73
2018-12-24T02:11:53.371Z,17.20
2018-12-24T02:14:24.201Z,19.17
2018-12-24T02:16:55.271Z,27.97
2018-12-24T02:19:25.975Z,24.20
2018-12-24T02:21:56.946Z,18.10
2018-12-24T02:24:27.764Z,17.43
2018-12-24T02:26:58.775Z,16.43
2018-12-24T02:29:29.498Z,25.70
2018-12-24T02:32:00.880Z,23.57
2018-12-24T02:34:31.780Z,19.37
2018-12-24T02:37:02.840Z,21.70
2018-12-24T02:39:33.933Z,23.53
2018-12-24T02:42:05.243Z,21.57
2018-12-24T02:44:35.976Z,20.13
2018-12-24T02:47:07.238Z,22.63
2018-12-24T02:49:38.059Z,21.67
2018-12-24T02:52:09.027Z,22.70
2018-12-24T02:54:39.800Z,24.43
2018-12-24T02:57:11.067Z,22.50
2018-12-24T02:59:41.792Z,29.83
2018-12-24T03:02:13.048Z,28.20
2018-12-24T03:04:44.006Z,29.57
2018-12-24T03:07:15.170Z,30.20
2018-12-24T03:09:48.477Z,29.77
2018-12-24T03:12:19.575Z,29.57
2018-12-24T03:14:50.662Z,28.53
2018-12-24T03:17:21.562Z,27.83
2018-12-24T03:19:52.274Z,28.57
2018-12-24T03:22:23.329Z,26.53
2018-12-24T03:24:54.326Z,27.37
2018-12-24T03:27:25.311Z,24.27
2018-12-24T03:29:56.012Z,24.77
2018-12-24T03:32:27.656Z,26.53
2018-12-24T03:34:58.534Z,24.17
2018-12-24T03:37:29.885Z,23.30
2018-12-24T03:40:00.610Z,25.13
2018-12-24T03:42:31.488Z,25.30
2018-12-24T03:45:02.544Z,25.07
2018-12-24T03:47:33.558Z,26.40
2018-12-24T03:50:04.277Z,24.97
2018-12-24T03:52:35.204Z,26.73
2018-12-24T03:55:06.179Z,25.83
2018-12-24T03:57:37.182Z,26.77
2018-12-24T04:00:08.877Z,31.27
2018-12-24T04:02:40.023Z,29.77
2018-12-24T04:05:10.753Z,25.83
2018-12-24T04:07:41.914Z,27.13
2018-12-24T04:10:12.612Z,30.17
2018-12-24T04:12:43.754Z,27.13
2018-12-24T04:15:14.715Z,25.47
2018-12-24T04:17:45.757Z,28.47
2018-12-24T04:20:16.825Z,28.87
2018-12-24T04:22:47.908Z,24.33
2018-12-24T04:25:18.644Z,24.53
2018-12-24T04:27:49.943Z,24.77
2018-12-24T04:30:20.984Z,25.50
2018-12-24T04:32:51.849Z,24.53
2018-12-24T04:35:22.773Z,25.13
2018-12-24T04:37:53.623Z,24.07
2018-12-24T04:40:24.443Z,30.50
2018-12-24T04:42:55.669Z,31.03
2018-12-24T04:45:26.385Z,29.63
2018-12-24T04:47:57.641Z,28.43
2018-12-24T04:50:28.435Z,27.17
2018-12-24T04:52:59.517Z,27.70
2018-12-24T04:55:30.410Z,23.33
2018-12-24T04:58:01.625Z,24.57
2018-12-24T05:00:32.343Z,22.83
2018-12-24T05:03:04.271Z,23.50
2018-12-24T05:05:35.388Z,27.87
2018-12-24T05:08:06.094Z,22.50
2018-12-24T05:10:36.857Z,24.73
2018-12-24T05:13:08.162Z,25.67
2018-12-24T05:15:39.049Z,24.10
2018-12-24T05:18:10.248Z,22.47
2018-12-24T05:20:40.962Z,25.20
2018-12-24T05:23:11.691Z,24.80
2018-12-24T05:25:42.681Z,27.73
2018-12-24T05:28:13.700Z,26.17
2018-12-24T05:30:44.423Z,28.03
2018-12-24T05:33:15.683Z,27.47
2018-12-24T05:35:46.611Z,27.20
2018-12-24T05:38:17.381Z,26.00
2018-12-24T05:40:49.458Z,25.30
2018-12-24T05:43:20.660Z,24.07
2018-12-24T05:45:51.437Z,23.93
2018-12-24T05:48:22.414Z,25.60
2018-12-24T05:50:53.223Z,58.37
2018-12-24T05:53:24.352Z,25.13
2018-12-24T05:55:55.265Z,25.70
2018-12-24T05:58:26.358Z,23.77
2018-12-24T06:00:57.449Z,19.77
2018-12-24T06:03:28.642Z,22.33
2018-12-24T06:05:59.361Z,20.23
2018-12-24T06:08:30.417Z,21.70
2018-12-24T06:11:01.466Z,20.77
2018-12-24T06:13:32.566Z,19.37
2018-12-24T06:16:03.540Z,17.77
2018-12-24T06:18:34.281Z,17.90
2018-12-24T06:21:05.067Z,17.87
2018-12-24T06:23:36.135Z,17.23
2018-12-24T06:26:07.258Z,14.43
2018-12-24T06:28:38.317Z,14.10
2018-12-24T06:31:51.622Z,14.10
2018-12-24T06:34:22.183Z,14.30
2018-12-24T06:36:52.825Z,23.87
2018-12-24T06:39:23.471Z,13.57
2018-12-24T06:41:53.751Z,13.20
2018-12-24T06:44:24.284Z,11.40
2018-12-24T06:46:54.651Z,12.40
2018-12-24T06:49:26.138Z,13.20
2018-12-24T06:51:56.447Z,14.80
2018-12-24T06:54:27.438Z,15.67
2018-12-24T06:56:57.724Z,16.33
2018-12-24T06:59:28.021Z,15.73
2018-12-24T07:01:58.794Z,16.93
2018-12-24T07:04:29.378Z,17.77
2018-12-24T07:07:00.138Z,16.17
2018-12-24T07:09:30.417Z,16.63
2018-12-24T07:12:01.115Z,17.07
2018-12-24T07:14:31.790Z,20.13
2018-12-24T07:17:02.280Z,41.63
2018-12-24T07:19:32.549Z,20.17
2018-12-24T07:22:03.456Z,18.93
2018-12-24T07:24:33.857Z,17.73
2018-12-24T07:27:04.173Z,12.47
2018-12-24T07:29:34.924Z,16.10
2018-12-24T07:32:05.779Z,16.93
2018-12-24T07:34:36.118Z,14.77
2018-12-24T07:37:06.714Z,13.70
2018-12-24T07:39:36.996Z,14.03
2018-12-24T07:42:07.853Z,14.70
2018-12-24T07:44:38.177Z,15.83
2018-12-24T07:47:08.698Z,11.90
2018-12-24T07:49:39.103Z,13.30
2018-12-24T07:52:09.797Z,16.13
2018-12-24T07:54:40.108Z,21.47
2018-12-24T07:57:10.997Z,19.70
2018-12-24T07:59:41.527Z,21.67
2018-12-24T08:02:12.087Z,19.77
2018-12-24T08:04:42.805Z,21.57
2018-12-24T08:07:13.422Z,21.57
2018-12-24T08:09:44.224Z,22.17
2018-12-24T08:12:14.943Z,22.40
2018-12-24T08:14:45.260Z,23.60
2018-12-24T08:17:15.737Z,23.70
2018-12-24T08:19:46.129Z,25.47
2018-12-24T08:22:16.694Z,23.80
2018-12-24T08:24:47.149Z,22.07
2018-12-24T08:27:18.030Z,19.33
2018-12-24T08:29:48.319Z,16.60
2018-12-24T08:32:19.003Z,18.47
2018-12-24T08:34:51.032Z,14.63
2018-12-24T08:37:21.352Z,19.57
2018-12-24T08:39:51.694Z,18.20
2018-12-24T08:42:22.556Z,15.87
2018-12-24T08:44:52.970Z,20.73
2018-12-24T08:47:23.498Z,16.07
2018-12-24T08:49:54.177Z,15.53
2018-12-24T08:52:25.188Z,12.63
2018-12-24T08:54:55.469Z,11.50
2018-12-24T08:57:26.101Z,9.63
2018-12-24T08:59:56.505Z,9.03
2018-12-24T09:02:27.322Z,8.87
2018-12-24T09:04:57.826Z,10.40
2018-12-24T09:07:28.435Z,9.90
2018-12-24T09:09:58.803Z,11.10
2018-12-24T09:12:29.734Z,10.70
2018-12-24T09:15:00.093Z,9.70
2018-12-24T09:17:30.818Z,11.60
2018-12-24T09:20:01.461Z,10.20
2018-12-24T09:22:32.053Z,9.40
2018-12-24T09:25:02.623Z,7.93
2018-12-24T09:27:33.558Z,10.10
2018-12-24T09:30:03.907Z,10.10
2018-12-24T09:32:34.678Z,9.00
2018-12-24T09:35:05.458Z,8.97
2018-12-24T09:37:36.158Z,8.97
2018-12-24T09:40:07.920Z,7.27
2018-12-24T09:42:38.532Z,5.97
2018-12-24T09:45:08.868Z,1.73
2018-12-24T09:47:39.435Z,6.27
2018-12-24T09:50:09.825Z,10.67
2018-12-24T09:52:40.463Z,12.43
2018-12-24T09:55:11.138Z,5.27
2018-12-24T09:57:41.738Z,1.87
2018-12-24T10:00:15.432Z,1.60
2018-12-24T10:02:56.709Z,1.40
2018-12-24T10:05:28.929Z,1.80
2018-12-24T10:08:01.530Z,1.90
2018-12-24T10:10:32.644Z,2.10
2018-12-24T10:13:03.264Z,2.50
2018-12-24T10:15:33.610Z,1.80
2018-12-24T10:18:03.919Z,1.97
2018-12-24T10:20:34.224Z,1.50
2018-12-24T10:23:05.245Z,2.43
2018-12-24T10:25:35.766Z,2.50
2018-12-24T10:28:06.418Z,1.63
2018-12-24T10:30:37.386Z,2.03
2018-12-24T10:33:08.205Z,2.17
2018-12-24T10:35:39.676Z,2.00
2018-12-24T10:38:10.375Z,2.33
2018-12-24T10:40:49.673Z,1.37
2018-12-24T10:43:20.226Z,2.37
2018-12-24T10:45:50.549Z,1.60
2018-12-24T10:48:20.916Z,1.87
2018-12-24T10:50:51.558Z,1.97
2018-12-24T10:53:22.200Z,2.00
2018-12-24T10:55:52.474Z,1.67
2018-12-24T10:58:23.200Z,2.20
2018-12-24T11:00:53.991Z,1.73
2018-12-24T11:03:24.305Z,2.20
2018-12-24T11:05:55.020Z,2.00
2018-12-24T11:08:25.579Z,2.23
2018-12-24T11:10:55.850Z,2.97
2018-12-24T11:13:26.407Z,2.50
2018-12-24T11:15:57.082Z,2.07
2018-12-24T11:18:27.428Z,1.77
2018-12-24T11:20:58.240Z,2.27
2018-12-24T11:23:28.632Z,2.20
2018-12-24T11:25:59.231Z,1.43
2018-12-24T11:28:29.856Z,1.60
2018-12-24T11:31:00.147Z,1.50
2018-12-24T11:33:30.471Z,1.83
2018-12-24T11:36:01.092Z,1.43
2018-12-24T11:38:31.395Z,1.37
2018-12-24T11:41:01.961Z,1.30
2018-12-24T11:43:32.352Z,1.53
2018-12-24T11:46:03.073Z,1.40
2018-12-24T11:48:33.373Z,1.70
2018-12-24T11:51:04.162Z,1.50
2018-12-24T11:53:34.466Z,1.80
2018-12-24T11:56:05.245Z,1.10
2018-12-24T11:58:36.572Z,1.50
2018-12-24T12:01:07.049Z,1.73
2018-12-24T12:03:37.717Z,1.70
2018-12-24T12:06:08.300Z,1.80
2018-12-24T12:08:38.585Z,1.57
2018-12-24T12:11:09.162Z,1.53
2018-12-24T12:13:39.541Z,1.87
2018-12-24T12:16:09.885Z,1.70
2018-12-24T12:18:40.519Z,1.53
2018-12-24T12:21:11.474Z,1.70
2018-12-24T12:23:41.786Z,1.57
2018-12-24T12:26:12.698Z,1.63
2018-12-24T12:28:42.991Z,1.57
2018-12-24T12:31:13.669Z,1.57
2018-12-24T12:33:44.209Z,1.47
2018-12-24T12:36:14.877Z,1.90
2018-12-24T12:38:45.584Z,1.60
2018-12-24T12:41:16.161Z,2.60
2018-12-24T12:43:46.440Z,1.67
2018-12-24T12:46:17.134Z,1.57
2018-12-24T12:48:47.955Z,1.63
2018-12-24T12:51:18.633Z,1.37
2018-12-24T12:53:48.936Z,1.80
2018-12-24T12:56:20.860Z,1.97
2018-12-24T12:58:51.144Z,2.27
2018-12-24T13:01:21.876Z,1.90
2018-12-24T13:03:52.447Z,1.80
2018-12-24T13:06:23.088Z,2.20
2018-12-24T13:08:53.390Z,3.03
2018-12-24T13:11:23.810Z,2.37
2018-12-24T13:13:54.432Z,2.50
2018-12-24T13:16:25.026Z,2.13
2018-12-24T13:18:55.700Z,1.80
2018-12-24T13:21:26.402Z,3.10
2018-12-24T13:23:56.674Z,2.27
2018-12-24T13:26:27.481Z,2.47
2018-12-24T13:28:57.780Z,2.53
2018-12-24T13:31:28.808Z,2.13
2018-12-24T13:33:59.501Z,2.13
2018-12-24T13:36:29.951Z,2.40
2018-12-24T13:39:00.639Z,2.23
2018-12-24T13:41:31.488Z,2.33
2018-12-24T13:44:01.839Z,2.93
2018-12-24T13:46:32.254Z,1.60
2018-12-24T13:49:02.941Z,2.10
2018-12-24T13:51:33.272Z,3.37
2018-12-24T13:54:03.615Z,6.47
2018-12-24T13:56:34.154Z,5.70
2018-12-24T13:59:04.517Z,2.10
2018-12-24T14:01:34.964Z,2.23
2018-12-24T14:04:05.282Z,2.27
2018-12-24T14:06:35.765Z,2.53
2018-12-24T14:09:08.588Z,2.10
2018-12-24T14:11:38.911Z,2.30
2018-12-24T14:14:09.243Z,1.70
2018-12-24T14:16:39.877Z,2.10
2018-12-24T14:19:10.171Z,1.77
2018-12-24T14:21:40.512Z,2.67
2018-12-24T14:24:11.168Z,1.77
2018-12-24T14:26:41.778Z,2.40
2018-12-24T14:29:12.050Z,1.77
2018-12-24T14:31:42.704Z,2.87
2018-12-24T14:34:13.001Z,2.73
2018-12-24T14:36:43.447Z,2.03
2018-12-24T14:39:13.843Z,2.60
2018-12-24T14:41:44.146Z,2.13
2018-12-24T14:44:14.810Z,2.97
2018-12-24T14:46:45.407Z,2.50
2018-12-24T14:49:15.701Z,4.03
2018-12-24T14:51:46.380Z,4.00
2018-12-24T14:54:17.121Z,4.37
2018-12-24T14:56:48.421Z,3.40
2018-12-24T14:59:19.396Z,2.97
2018-12-24T15:01:49.933Z,3.80
2018-12-24T15:04:20.211Z,3.33
2018-12-24T15:06:51.562Z,4.23
2018-12-24T15:09:21.943Z,4.20
2018-12-24T15:11:52.629Z,3.30
2018-12-24T15:14:23.181Z,2.30
2018-12-24T15:16:53.452Z,2.97
2018-12-24T15:19:24.046Z,3.37
2018-12-24T15:21:54.636Z,3.80
2018-12-24T15:24:24.950Z,3.40
2018-12-24T15:26:55.408Z,3.33
2018-12-24T15:29:27.852Z,3.93
2018-12-24T15:31:58.135Z,2.70
2018-12-24T15:34:28.494Z,2.33
2018-12-24T15:36:59.021Z,2.73
2018-12-24T15:39:29.718Z,0.10
2018-12-24T15:42:00.350Z,0.10
2018-12-24T15:44:30.617Z,0.10
2018-12-24T15:47:01.213Z,0.10
2018-12-24T15:49:31.900Z,0.10
2018-12-24T15:52:02.203Z,0.23
2018-12-24T15:54:32.646Z,0.10
2018-12-24T15:57:03.337Z,0.23
2018-12-24T15:59:33.616Z,0.10
2018-12-24T16:02:03.935Z,0.10
2018-12-24T16:04:34.358Z,0.10
2018-12-24T16:07:04.667Z,0.10
2018-12-24T16:09:35.212Z,0.20
2018-12-24T16:12:05.537Z,0.20
2018-12-24T16:14:35.836Z,0.10
2018-12-24T16:17:06.605Z,0.10
2018-12-24T16:19:36.919Z,0.10
2018-12-24T16:22:07.231Z,0.27
2018-12-24T16:24:37.923Z,0.63
2018-12-24T16:27:08.417Z,0.10
2018-12-24T16:29:38.707Z,1.50
2018-12-24T16:32:09.402Z,3.07
2018-12-24T16:34:39.847Z,3.10
2018-12-24T16:37:10.138Z,4.77
2018-12-24T16:39:40.893Z,6.07
2018-12-24T16:42:11.177Z,4.70
2018-12-24T16:44:41.955Z,3.43
2018-12-24T16:47:12.337Z,4.17
2018-12-24T16:49:42.661Z,3.03
2018-12-24T16:52:13.352Z,3.47
2018-12-24T16:54:44.075Z,4.80
2018-12-24T16:57:14.340Z,3.20
2018-12-24T16:59:45.115Z,3.60
2018-12-24T17:02:15.523Z,3.43
2018-12-24T17:04:45.788Z,2.53
2018-12-24T17:07:16.148Z,2.77
2018-12-24T17:09:46.808Z,2.67
2018-12-24T17:12:17.125Z,1.93
2018-12-24T17:14:47.487Z,2.37
2018-12-24T17:17:18.024Z,1.90
2018-12-24T17:19:48.392Z,1.70
2018-12-24T17:22:18.762Z,2.03
2018-12-24T17:24:49.359Z,3.00
2018-12-24T17:27:19.888Z,2.90
2018-12-24T17:29:50.154Z,3.03
2018-12-24T17:32:20.797Z,2.57
2018-12-24T17:34:51.193Z,2.20
2018-12-24T17:37:21.477Z,2.47
2018-12-24T17:39:52.210Z,2.30
2018-12-24T17:42:22.886Z,2.13
2018-12-24T17:44:53.333Z,4.90
2018-12-24T17:47:23.672Z,3.17
2018-12-24T17:49:53.966Z,1.80
2018-12-24T17:52:24.636Z,2.73
2018-12-24T17:54:55.310Z,2.50
2018-12-24T17:57:25.650Z,4.63
2018-12-24T17:59:56.227Z,3.40
2018-12-24T18:02:26.941Z,3.63
2018-12-24T18:04:57.208Z,5.63
2018-12-24T18:07:28.728Z,5.00
2018-12-24T18:09:59.354Z,9.13
2018-12-24T18:12:29.701Z,7.73
2018-12-24T18:15:00.181Z,4.90
2018-12-24T18:17:30.657Z,1.93
2018-12-24T18:20:01.379Z,5.23
2018-12-24T18:22:33.066Z,2.40
2018-12-24T18:25:03.356Z,1.40
2018-12-24T18:27:33.943Z,2.17
2018-12-24T18:30:05.007Z,2.40
2018-12-24T18:32:36.383Z,3.33
2018-12-24T18:35:06.759Z,5.30
2018-12-24T18:37:37.420Z,5.53
2018-12-24T18:40:07.746Z,4.87
2018-12-24T18:42:38.025Z,5.73
2018-12-24T18:45:08.722Z,4.80
2018-12-24T18:47:39.359Z,2.33
2018-12-24T18:50:09.894Z,2.47
2018-12-24T18:52:40.439Z,3.27
2018-12-24T18:55:10.782Z,2.57
2018-12-24T18:57:41.494Z,3.00
2018-12-24T19:00:11.907Z,4.97
2018-12-24T19:02:42.225Z,3.50
2018-12-24T19:05:12.767Z,1.73
2018-12-24T19:07:43.435Z,10.03
2018-12-24T19:10:13.735Z,3.53
2018-12-24T19:12:44.646Z,6.13
2018-12-24T19:15:15.265Z,11.77
2018-12-24T19:17:45.541Z,7.30
2018-12-24T19:20:16.136Z,3.27
2018-12-24T19:22:46.420Z,3.07
2018-12-24T19:25:17.667Z,2.90
2018-12-24T19:27:49.465Z,4.27
2018-12-24T19:30:19.788Z,1.73
2018-12-24T19:32:51.499Z,6.57
2018-12-24T19:35:21.871Z,2.70
2018-12-24T19:37:52.175Z,1.60
2018-12-24T19:40:22.848Z,1.40
2018-12-24T19:42:53.217Z,1.20
2018-12-24T19:45:23.565Z,1.33
2018-12-24T19:47:53.930Z,1.60
2018-12-24T19:50:24.612Z,1.67
2018-12-24T19:52:54.951Z,1.47
2018-12-24T19:55:25.449Z,3.10
2018-12-24T19:57:55.771Z,2.13
2018-12-24T20:00:26.524Z,2.67
2018-12-24T20:02:56.901Z,2.27
2018-12-24T20:05:27.210Z,2.00
2018-12-24T20:07:57.741Z,1.97
2018-12-24T20:10:28.333Z,2.50
2018-12-24T20:12:58.660Z,1.80
2018-12-24T20:15:28.984Z,2.07
2018-12-24T20:17:59.572Z,2.30
2018-12-24T20:20:29.831Z,2.60
2018-12-24T20:23:00.165Z,2.40
2018-12-24T20:25:30.817Z,2.00
2018-12-24T20:28:01.272Z,1.97
2018-12-24T20:30:31.765Z,2.73
2018-12-24T20:33:02.090Z,2.03
2018-12-24T20:35:32.565Z,2.07
2018-12-24T20:38:03.259Z,3.20
2018-12-24T20:40:33.587Z,2.03
2018-12-24T20:43:03.860Z,1.60
2018-12-24T20:45:34.469Z,1.80
2018-12-24T20:48:06.727Z,1.80
2018-12-24T20:50:36.909Z,1.97
2018-12-24T20:53:07.557Z,3.53
2018-12-24T20:55:38.224Z,2.60
2018-12-24T20:58:09.109Z,2.80
2018-12-24T21:00:39.505Z,2.47
2018-12-24T21:03:10.225Z,3.80
2018-12-24T21:05:43.827Z,2.47
2018-12-24T21:08:14.303Z,3.07
2018-12-24T21:10:44.568Z,3.40
2018-12-24T21:13:15.219Z,4.33
2018-12-24T21:15:45.905Z,3.90
2018-12-24T21:18:16.225Z,2.10
2018-12-24T21:20:46.878Z,1.73
2018-12-24T21:23:17.645Z,1.60
2018-12-24T21:25:47.973Z,1.23
2018-12-24T21:28:18.390Z,1.37
2018-12-24T21:30:49.025Z,1.70
2018-12-24T21:33:19.323Z,2.20
2018-12-24T21:35:49.598Z,1.97
2018-12-24T21:38:20.296Z,1.87
2018-12-24T21:40:50.555Z,1.93
2018-12-24T21:43:20.865Z,2.10
2018-12-24T21:45:51.586Z,1.70
2018-12-24T21:48:23.897Z,1.93
2018-12-24T21:50:53.980Z,2.70
2018-12-24T21:53:24.560Z,1.80
2018-12-24T21:55:55.244Z,1.97
2018-12-24T21:58:25.508Z,2.40
2018-12-24T22:00:56.321Z,2.70
2018-12-24T22:03:26.587Z,2.23
2018-12-24T22:05:56.994Z,2.10
2018-12-24T22:08:27.550Z,2.13
2018-12-24T22:10:57.863Z,2.00
2018-12-24T22:13:28.563Z,2.10
2018-12-24T22:15:59.267Z,2.50
2018-12-24T22:18:32.353Z,2.07
2018-12-24T22:21:01.970Z,2.03
2018-12-24T22:23:32.565Z,1.57
2018-12-24T22:26:02.876Z,1.97
2018-12-24T22:28:33.220Z,2.07
2018-12-24T22:31:03.619Z,2.60
2018-12-24T22:33:33.882Z,2.63
2018-12-24T22:36:04.512Z,2.20
2018-12-24T22:38:34.874Z,2.33
2018-12-24T22:41:05.578Z,2.73
2018-12-24T22:43:36.292Z,2.83
2018-12-24T22:46:06.652Z,2.10
2018-12-24T22:48:40.803Z,3.30
2018-12-24T22:51:09.554Z,2.10
2018-12-24T22:53:39.825Z,2.17
2018-12-24T22:56:10.153Z,1.70
2018-12-24T22:58:40.875Z,1.97
2018-12-24T23:01:11.152Z,1.90
2018-12-24T23:03:41.468Z,2.30
2018-12-24T23:06:12.189Z,1.70
2018-12-24T23:08:42.757Z,1.77
2018-12-24T23:11:13.403Z,1.80
2018-12-24T23:13:43.733Z,1.67
2018-12-24T23:16:14.158Z,1.80
2018-12-24T23:18:49.326Z,1.53
2018-12-24T23:21:16.875Z,1.60
2018-12-24T23:23:47.145Z,1.50
2018-12-24T23:26:18.896Z,1.50
2018-12-24T23:28:49.225Z,1.97
2018-12-24T23:31:19.543Z,1.80
2018-12-24T23:33:49.985Z,1.47
2018-12-24T23:36:20.729Z,1.80
2018-12-24T23:38:51.038Z,2.23
2018-12-24T23:41:21.552Z,2.20
2018-12-24T23:43:52.319Z,2.73
2018-12-24T23:46:22.661Z,2.57
2018-12-24T23:48:57.631Z,2.67
2018-12-24T23:51:25.462Z,2.23
2018-12-24T23:53:55.732Z,2.23
2018-12-24T23:56:26.081Z,3.53
2018-12-24T23:58:56.692Z,2.80
